Time;durP1;ratioP1;P1;durP2;ratioP2;P2;SDS_P1;SDS_P2;PMS_P1;PMS_P2;Temp;Humidity;BMP_temperature;BMP_pressure;BME280_temperature;BME280_humidity;BME280_pressure;Samples;Min_cycle;Max_cycle;Signal;HPM_P1;HPM_P2
2023/05/18 04:30:28;;;;;;;;;7.00;7.00;;;;;13.17;54.54;102155.47;5063013;27;45649;-74
2023/05/18 04:32:57;;;;;;;;;8.50;6.00;;;;;13.15;54.97;102157.34;5034734;28;45312;-74
2023/05/18 04:35:24;;;;;;;;;6.50;6.00;;;;;13.12;54.66;102152.00;5035308;28;45293;-74
2023/05/18 04:37:49;;;;;;;;;7.25;6.25;;;;;13.09;54.60;102146.75;5035377;28;45534;-76
2023/05/18 04:40:16;;;;;;;;;8.25;7.50;;;;;13.16;54.62;102166.28;5035441;28;45931;-75
2023/05/18 04:42:46;;;;;;;;;6.75;6.75;;;;;13.15;54.44;102173.50;5035568;28;45503;-76
2023/05/18 04:45:16;;;;;;;;;8.50;8.50;;;;;13.15;54.48;102170.78;5035415;28;45195;-75
2023/05/18 04:47:45;;;;;;;;;8.50;7.50;;;;;13.16;54.87;102166.28;5034939;28;45421;-75
2023/05/18 04:50:12;;;;;;;;;7.25;7.25;;;;;13.10;54.67;102147.63;5033808;28;45605;-74
2023/05/18 04:52:37;;;;;;;;;8.00;8.00;;;;;13.11;54.63;102168.22;5051705;28;45394;-74
2023/05/18 04:55:03;;;;;;;;;11.25;8.00;;;;;13.12;54.20;102165.47;5036793;28;45530;-73
2023/05/18 04:57:28;;;;;;;;;12.75;8.00;;;;;13.16;54.38;102175.25;5035020;28;45517;-75
2023/05/18 04:59:53;;;;;;;;;8.75;7.00;;;;;13.10;54.42;102156.56;5034554;28;53305;-73
2023/05/18 05:02:19;;;;;;;;;13.75;8.75;;;;;13.20;54.61;102174.19;5034132;28;48109;-73
2023/05/18 05:04:44;;;;;;;;;13.00;8.00;;;;;13.13;54.64;102160.97;5033390;28;45421;-75
2023/05/18 05:07:09;;;;;;;;;7.50;7.50;;;;;13.20;54.31;102178.69;5034945;28;45479;-74
2023/05/18 05:09:35;;;;;;;;;10.50;9.25;;;;;13.17;54.12;102165.38;5034365;28;50757;-74
2023/05/18 05:12:00;;;;;;;;;9.50;9.50;;;;;13.22;54.27;102168.75;5034377;28;45349;-74
2023/05/18 05:14:26;;;;;;;;;10.00;7.75;;;;;13.21;54.16;102170.56;5034810;28;45324;-73
2023/05/18 05:16:51;;;;;;;;;11.75;8.50;;;;;13.23;54.14;102182.19;5034377;28;45375;-74
2023/05/18 05:19:17;;;;;;;;;8.75;7.25;;;;;13.24;54.37;102161.53;5034509;28;53746;-74
2023/05/18 05:21:42;;;;;;;;;8.00;8.00;;;;;13.20;53.92;102168.81;5035118;28;49799;-74
2023/05/18 05:24:07;;;;;;;;;8.50;7.00;;;;;13.23;53.95;102174.09;5035364;28;45411;-74
2023/05/18 05:26:34;;;;;;;;;8.25;8.25;;;;;13.18;53.90;102165.28;5035054;28;46786;-74
2023/05/18 05:28:59;;;;;;;;;9.50;9.50;;;;;13.21;53.98;102173.28;5032170;28;45485;-74
2023/05/18 05:31:24;;;;;;;;;8.00;6.00;;;;;13.27;53.71;102182.09;5049768;28;45390;-74
2023/05/18 05:33:50;;;;;;;;;10.25;8.00;;;;;13.20;53.72;102158.03;5075521;28;45268;-74
2023/05/18 05:36:15;;;;;;;;;9.75;9.75;;;;;13.31;53.92;102176.53;5075353;28;45292;-74
2023/05/18 05:38:41;;;;;;;;;9.75;9.00;;;;;13.32;53.55;102183.69;5074958;28;49497;-73
2023/05/18 05:41:06;;;;;;;;;10.75;9.50;;;;;13.30;53.71;102173.88;5056875;28;45371;-74
2023/05/18 05:43:31;;;;;;;;;10.50;8.25;;;;;13.38;53.78;102186.16;5074993;28;46021;-74
2023/05/18 05:45:57;;;;;;;;;13.25;7.75;;;;;13.40;53.70;102180.72;5074754;28;45524;-76
2023/05/18 05:48:22;;;;;;;;;9.25;7.25;;;;;13.45;53.74;102189.50;5074339;28;46268;-75
2023/05/18 05:50:47;;;;;;;;;12.50;10.25;;;;;13.41;53.63;102182.50;5074479;28;45452;-73
2023/05/18 05:53:16;;;;;;;;;6.00;6.00;;;;;13.50;53.51;102198.34;5088036;27;45417;-74
2023/05/18 05:55:42;;;;;;;;;10.75;8.75;;;;;13.51;53.25;102195.59;5074395;28;45378;-75
2023/05/18 05:58:08;;;;;;;;;9.00;8.50;;;;;13.54;53.33;102200.84;5074396;28;46421;-72
2023/05/18 06:00:33;;;;;;;;;11.25;9.00;;;;;13.57;52.86;102187.28;5076935;28;45450;-70
2023/05/18 06:02:59;;;;;;;;;10.00;8.25;;;;;13.58;53.39;102191.75;5077793;28;45284;-69
2023/05/18 06:05:25;;;;;;;;;9.25;9.25;;;;;13.59;52.71;102180.03;5078134;28;45559;-71
2023/05/18 06:07:50;;;;;;;;;10.50;9.00;;;;;13.67;53.55;102197.75;5077635;28;45373;-74
2023/05/18 06:10:15;;;;;;;;;6.50;6.50;;;;;13.62;53.00;102181.72;5077812;28;45466;-78
2023/05/18 06:12:40;;;;;;;;;9.00;9.00;;;;;13.60;52.97;102172.84;5078071;28;45473;-79
2023/05/18 06:15:07;;;;;;;;;8.50;8.50;;;;;13.80;52.84;102191.84;5077841;28;45424;-77
2023/05/18 06:17:32;;;;;;;;;14.00;10.00;;;;;13.74;52.95;102175.03;5077520;28;46654;-82
2023/05/18 06:19:58;;;;;;;;;11.50;10.50;;;;;13.91;52.19;102202.25;5077845;28;45424;-76
2023/05/18 06:22:24;;;;;;;;;11.50;8.75;;;;;13.90;52.31;102187.00;5059123;28;48054;-80
2023/05/18 06:24:49;;;;;;;;;11.25;11.25;;;;;13.93;52.27;102181.50;5078350;28;45227;-78
2023/05/18 06:27:15;;;;;;;;;12.00;10.75;;;;;14.08;51.95;102198.91;5060303;28;46177;-78
2023/05/18 06:29:41;;;;;;;;;13.50;10.00;;;;;14.06;51.65;102185.50;5077500;28;45378;-77
2023/05/18 06:32:06;;;;;;;;;9.50;9.50;;;;;14.17;51.55;102195.88;5077624;28;47293;-80
2023/05/18 06:34:32;;;;;;;;;12.50;9.25;;;;;14.23;51.03;102201.03;5077683;28;45511;-82
2023/05/18 06:36:58;;;;;;;;;10.00;8.75;;;;;14.27;51.39;102194.59;5058965;28;46094;-77
2023/05/18 06:39:24;;;;;;;;;11.50;9.00;;;;;14.31;50.82;102190.84;5059213;28;45410;-84
2023/05/18 06:41:50;;;;;;;;;11.75;8.75;;;;;14.15;50.96;102157.28;5059452;28;45538;-80
2023/05/18 06:44:16;;;;;;;;;9.75;8.75;;;;;14.46;50.39;102195.66;5078081;28;45535;-80
2023/05/18 06:46:41;;;;;;;;;10.00;8.00;;;;;14.47;50.47;102188.44;5058272;28;46046;-84
2023/05/18 06:49:07;;;;;;;;;12.75;10.00;;;;;14.52;50.77;102190.06;5077282;28;45290;-84
2023/05/18 06:51:32;;;;;;;;;11.75;8.75;;;;;14.62;49.97;102195.97;5079418;27;45990;-83
2023/05/18 06:53:57;;;;;;;;;6.50;6.25;;;;;14.54;50.06;102157.63;5088354;27;45490;-80
2023/05/18 06:56:23;;;;;;;;;9.75;9.00;;;;;14.76;50.13;102186.38;5076834;28;46328;-79
2023/05/18 06:58:48;;;;;;;;;6.50;6.50;;;;;14.80;50.12;102187.09;5077064;28;45354;-78
2023/05/18 07:01:14;;;;;;;;;8.25;7.00;;;;;14.90;49.07;102191.19;5076643;28;45358;-76
2023/05/18 07:03:39;;;;;;;;;11.75;10.00;;;;;14.84;49.00;102168.97;5077498;28;45454;-78
2023/05/18 07:06:05;;;;;;;;;11.50;8.25;;;;;14.92;48.99;102172.25;5075823;28;45812;-78
2023/05/18 07:08:31;;;;;;;;;9.00;9.00;;;;;14.98;48.89;102180.06;5075910;28;45425;-79
2023/05/18 07:10:58;;;;;;;;;11.75;9.25;;;;;15.00;48.58;102175.50;5076636;28;45385;-74
2023/05/18 07:13:24;;;;;;;;;9.75;9.00;;;;;15.01;48.93;102171.84;5077130;28;45387;-82
2023/05/18 07:15:50;;;;;;;;;11.50;9.00;;;;;15.17;48.62;102188.31;5075168;28;45342;-78
2023/05/18 07:18:15;;;;;;;;;8.00;8.00;;;;;15.20;49.31;102188.19;5078291;28;45338;-79
2023/05/18 07:20:40;;;;;;;;;15.50;11.50;;;;;15.28;48.46;102189.63;5076394;28;45307;-80
2023/05/18 07:23:06;;;;;;;;;8.25;8.25;;;;;15.38;48.72;102198.22;5076836;28;45222;-78
2023/05/18 07:25:32;;;;;;;;;10.75;9.00;;;;;15.46;48.34;102191.53;5057732;28;48294;-74
2023/05/18 07:27:57;;;;;;;;;12.50;10.25;;;;;15.51;47.71;102192.19;5076748;28;45227;-75
2023/05/18 07:30:25;;;;;;;;;10.50;9.00;;;;;15.47;47.64;102166.28;5076309;28;45549;-82
2023/05/18 07:32:50;;;;;;;;;15.00;10.00;;;;;15.73;47.11;102192.19;5076098;28;45577;-78
2023/05/18 07:35:18;;;;;;;;;7.50;7.50;;;;;15.77;47.20;102184.81;5057929;28;46647;-81
2023/05/18 07:37:44;;;;;;;;;12.00;11.00;;;;;15.85;46.60;102185.34;5078664;28;45380;-79
2023/05/18 07:40:11;;;;;;;;;9.50;9.00;;;;;15.91;47.25;102185.06;5078816;28;45421;-76
2023/05/18 07:42:39;;;;;;;;;10.75;9.00;;;;;15.97;46.76;102173.09;5076463;28;46504;-79
2023/05/18 07:45:05;;;;;;;;;13.50;10.50;;;;;16.00;46.87;102163.00;5076183;28;46274;-78
2023/05/18 07:47:31;;;;;;;;;9.50;8.25;;;;;16.19;46.35;102176.56;5076394;28;45464;-76
2023/05/18 07:49:56;;;;;;;;;11.00;9.50;;;;;16.28;46.08;102177.00;5076550;28;45613;-79
2023/05/18 07:52:22;;;;;;;;;10.75;10.00;;;;;16.27;45.24;102167.13;5085705;27;45469;-80
2023/05/18 07:54:47;;;;;;;;;11.00;10.25;;;;;16.28;45.32;102171.59;5079729;27;46219;-81
2023/05/18 07:57:13;;;;;;;;;6.50;6.50;;;;;16.28;44.52;102171.59;5057674;28;45461;-83
2023/05/18 07:59:38;;;;;;;;;14.00;7.50;;;;;16.30;44.45;102162.53;5076298;28;45327;-81
2023/05/18 08:02:04;;;;;;;;;10.00;10.00;;;;;16.10;43.54;102121.03;5075694;28;45330;-79
2023/05/18 08:04:29;;;;;;;;;11.25;11.00;;;;;16.42;43.83;102172.75;5075445;28;45559;-78
2023/05/18 08:06:59;;;;;;;;;7.75;7.75;;;;;16.46;44.58;102163.56;5076030;28;45406;-79
2023/05/18 08:09:25;;;;;;;;;7.00;7.00;;;;;16.51;43.79;102166.91;5075943;28;45369;-75
2023/05/18 08:11:51;;;;;;;;;8.00;5.75;;;;;16.54;44.10;102159.53;5076499;28;45493;-76
